createdAt,value
2018-09-27T00:00:16.896Z,7.24
2018-09-27T00:01:17.073Z,7.20
2018-09-27T00:02:17.186Z,7.19
2018-09-27T00:03:17.332Z,7.12
2018-09-27T00:04:17.480Z,7.20
2018-09-27T00:05:17.625Z,7.13
2018-09-27T00:06:17.771Z,7.13
2018-09-27T00:07:17.919Z,7.17
2018-09-27T00:08:18.066Z,7.26
2018-09-27T00:09:18.215Z,7.24
2018-09-27T00:10:18.361Z,7.26
2018-09-27T00:11:18.504Z,7.31
2018-09-27T00:12:18.648Z,7.37
2018-09-27T00:13:18.797Z,7.45
2018-09-27T00:14:18.947Z,7.38
2018-09-27T00:15:19.097Z,7.26
2018-09-27T00:16:19.238Z,7.24
2018-09-27T00:17:19.384Z,7.35
2018-09-27T00:18:19.533Z,7.35
2018-09-27T00:19:19.679Z,7.32
2018-09-27T00:20:19.827Z,7.37
2018-09-27T00:21:19.974Z,7.37
2018-09-27T00:22:20.121Z,7.40
2018-09-27T00:23:20.268Z,7.34
2018-09-27T00:24:20.415Z,7.34
2018-09-27T00:25:20.563Z,7.23
2018-09-27T00:26:20.710Z,7.22
2018-09-27T00:27:20.856Z,7.20
2018-09-27T00:28:21.001Z,7.19
2018-09-27T00:29:21.145Z,7.19
2018-09-27T00:30:21.295Z,7.23
2018-09-27T00:31:21.443Z,7.31
2018-09-27T00:32:21.588Z,7.22
2018-09-27T00:33:21.733Z,7.13
2018-09-27T00:34:21.881Z,7.20
2018-09-27T00:35:22.028Z,7.22
2018-09-27T00:36:22.175Z,7.22
2018-09-27T00:37:22.323Z,7.13
2018-09-27T00:38:22.510Z,7.08
2018-09-27T00:39:22.619Z,6.98
2018-09-27T00:40:22.763Z,7.01
2018-09-27T00:41:22.910Z,7.05
2018-09-27T00:42:23.054Z,7.07
2018-09-27T00:43:23.202Z,7.08
2018-09-27T00:44:23.349Z,7.08
2018-09-27T00:45:23.497Z,7.07
2018-09-27T00:46:23.645Z,7.07
2018-09-27T00:47:23.842Z,7.02
2018-09-27T00:48:23.937Z,7.05
2018-09-27T00:49:24.082Z,7.15
2018-09-27T00:50:24.233Z,7.13
2018-09-27T00:51:24.378Z,7.19
2018-09-27T00:52:24.522Z,7.29
2018-09-27T00:53:24.670Z,7.35
2018-09-27T00:54:24.817Z,7.26
2018-09-27T00:55:24.964Z,7.32
2018-09-27T00:56:25.111Z,7.24
2018-09-27T00:57:25.256Z,7.15
2018-09-27T00:58:25.410Z,7.08
2018-09-27T00:59:25.552Z,6.97
2018-09-27T01:00:25.699Z,6.94
2018-09-27T01:01:25.846Z,6.95
2018-09-27T01:02:25.999Z,7.01
2018-09-27T01:03:26.141Z,7.07
2018-09-27T01:04:26.288Z,6.97
2018-09-27T01:05:26.468Z,6.99
2018-09-27T01:06:26.580Z,6.87
2018-09-27T01:07:26.728Z,6.84
2018-09-27T01:08:26.875Z,6.87
2018-09-27T01:09:27.021Z,6.89
2018-09-27T01:10:27.168Z,6.98
2018-09-27T01:11:27.315Z,7.08
2018-09-27T01:12:27.466Z,7.08
2018-09-27T01:13:27.613Z,6.99
2018-09-27T01:14:27.764Z,6.99
2018-09-27T01:15:27.903Z,7.01
2018-09-27T01:16:28.050Z,6.97
2018-09-27T01:17:28.198Z,7.05
2018-09-27T01:18:28.344Z,7.04
2018-09-27T01:19:28.489Z,7.15
2018-09-27T01:20:28.635Z,7.08
2018-09-27T01:21:28.783Z,7.07
2018-09-27T01:22:28.928Z,7.22
2018-09-27T01:23:29.076Z,7.17
2018-09-27T01:24:29.219Z,7.15
2018-09-27T01:25:29.366Z,7.19
2018-09-27T01:26:29.515Z,7.22
2018-09-27T01:27:29.662Z,7.22
2018-09-27T01:28:29.803Z,7.20
2018-09-27T01:29:29.951Z,7.19
2018-09-27T01:30:30.098Z,7.24
2018-09-27T01:31:30.241Z,7.23
2018-09-27T01:32:30.390Z,7.09
2018-09-27T01:33:30.539Z,7.17
2018-09-27T01:34:30.687Z,7.13
2018-09-27T01:35:30.837Z,7.17
2018-09-27T01:36:30.976Z,7.01
2018-09-27T01:37:31.126Z,7.05
2018-09-27T01:38:31.273Z,7.07
2018-09-27T01:39:31.418Z,7.01
2018-09-27T01:40:31.565Z,7.02
2018-09-27T01:41:31.712Z,7.04
2018-09-27T01:42:31.862Z,6.97
2018-09-27T01:43:32.007Z,7.07
2018-09-27T01:44:32.151Z,7.04
2018-09-27T01:45:32.298Z,7.12
2018-09-27T01:46:32.445Z,7.08
2018-09-27T01:47:32.592Z,7.12
2018-09-27T01:48:32.755Z,7.17
2018-09-27T01:49:32.884Z,7.08
2018-09-27T01:50:33.033Z,7.04
2018-09-27T01:51:33.177Z,7.09
2018-09-27T01:52:33.326Z,7.08
2018-09-27T01:53:33.472Z,6.94
2018-09-27T01:54:33.620Z,7.07
2018-09-27T01:55:33.766Z,7.12
2018-09-27T01:56:33.911Z,7.01
2018-09-27T01:57:34.061Z,6.90
2018-09-27T01:58:34.210Z,6.86
2018-09-27T01:59:34.357Z,6.94
2018-09-27T02:00:34.504Z,6.90
2018-09-27T02:01:34.653Z,6.81
2018-09-27T02:02:34.797Z,6.80
2018-09-27T02:03:34.946Z,6.80
2018-09-27T02:04:35.091Z,6.86
2018-09-27T02:05:35.240Z,6.72
2018-09-27T02:06:35.386Z,6.66
2018-09-27T02:07:35.535Z,6.68
2018-09-27T02:08:35.678Z,6.69
2018-09-27T02:09:35.825Z,6.69
2018-09-27T02:10:35.972Z,6.69
2018-09-27T02:11:36.120Z,6.76
2018-09-27T02:12:36.268Z,6.80
2018-09-27T02:13:36.416Z,6.73
2018-09-27T02:14:36.556Z,6.83
2018-09-27T02:15:36.705Z,6.81
2018-09-27T02:16:36.849Z,6.83
2018-09-27T02:17:36.998Z,6.71
2018-09-27T02:18:37.146Z,6.65
2018-09-27T02:19:37.292Z,6.66
2018-09-27T02:20:37.439Z,6.69
2018-09-27T02:21:37.589Z,6.68
2018-09-27T02:22:37.750Z,6.69
2018-09-27T02:23:37.894Z,6.68
2018-09-27T02:24:38.039Z,6.65
2018-09-27T02:25:38.187Z,6.68
2018-09-27T02:26:38.332Z,6.66
2018-09-27T02:27:38.479Z,6.71
2018-09-27T02:28:38.627Z,6.73
2018-09-27T02:29:38.805Z,6.65
2018-09-27T02:30:38.922Z,6.69
2018-09-27T02:31:39.068Z,6.72
2018-09-27T02:32:39.217Z,6.69
2018-09-27T02:33:39.362Z,6.65
2018-09-27T02:34:39.508Z,6.66
2018-09-27T02:35:39.655Z,6.69
2018-09-27T02:36:39.804Z,6.65
2018-09-27T02:37:39.950Z,6.73
2018-09-27T02:38:40.095Z,6.68
2018-09-27T02:39:40.242Z,6.65
2018-09-27T02:40:40.391Z,6.62
2018-09-27T02:41:40.536Z,6.54
2018-09-27T02:42:40.685Z,6.63
2018-09-27T02:43:40.832Z,6.62
2018-09-27T02:44:40.979Z,6.58
2018-09-27T02:45:41.127Z,6.65
2018-09-27T02:46:41.274Z,6.62
2018-09-27T02:47:41.422Z,6.54
2018-09-27T02:48:41.568Z,6.62
2018-09-27T02:49:41.717Z,6.44
2018-09-27T02:50:41.863Z,6.53
2018-09-27T02:51:42.007Z,6.43
2018-09-27T02:52:42.153Z,6.59
2018-09-27T02:53:42.302Z,6.58
2018-09-27T02:54:42.444Z,6.50
2018-09-27T02:55:42.593Z,6.54
2018-09-27T02:56:42.741Z,6.44
2018-09-27T02:57:42.886Z,6.47
2018-09-27T02:58:43.048Z,6.56
2018-09-27T02:59:43.179Z,6.47
2018-09-27T03:00:43.326Z,6.41
2018-09-27T03:01:43.473Z,6.51
2018-09-27T03:02:43.618Z,6.41
2018-09-27T03:03:43.764Z,6.47
2018-09-27T03:04:43.910Z,6.44
2018-09-27T03:05:44.056Z,6.44
2018-09-27T03:06:44.201Z,6.46
2018-09-27T03:07:44.348Z,6.46
2018-09-27T03:08:44.494Z,6.40
2018-09-27T03:09:44.642Z,6.44
2018-09-27T03:10:44.787Z,6.46
2018-09-27T03:11:44.936Z,6.48
2018-09-27T03:12:45.081Z,6.54
2018-09-27T03:13:45.268Z,6.41
2018-09-27T03:14:45.376Z,6.36
2018-09-27T03:15:45.525Z,6.47
2018-09-27T03:16:45.671Z,6.50
2018-09-27T03:17:45.818Z,6.48
2018-09-27T03:18:45.965Z,6.44
2018-09-27T03:19:46.110Z,6.43
2018-09-27T03:20:46.268Z,6.47
2018-09-27T03:21:46.405Z,6.44
2018-09-27T03:22:46.555Z,6.40
2018-09-27T03:23:46.694Z,6.35
2018-09-27T03:24:46.844Z,6.35
2018-09-27T03:25:46.987Z,6.35
2018-09-27T03:26:47.135Z,6.30
2018-09-27T03:27:47.281Z,6.35
2018-09-27T03:28:47.446Z,6.33
2018-09-27T03:29:47.575Z,6.35
2018-09-27T03:30:47.724Z,6.38
2018-09-27T03:31:47.872Z,6.26
2018-09-27T03:32:48.019Z,6.25
2018-09-27T03:33:48.187Z,6.33
2018-09-27T03:34:48.306Z,6.47
2018-09-27T03:35:48.450Z,6.47
2018-09-27T03:36:48.598Z,6.44
2018-09-27T03:37:48.748Z,6.40
2018-09-27T03:38:48.893Z,6.46
2018-09-27T03:39:49.099Z,6.46
2018-09-27T03:40:49.183Z,6.33
2018-09-27T03:41:49.332Z,6.33
2018-09-27T03:42:49.477Z,6.30
2018-09-27T03:43:49.623Z,6.32
2018-09-27T03:44:49.769Z,6.25
2018-09-27T03:45:49.915Z,6.26
2018-09-27T03:46:50.064Z,6.13
2018-09-27T03:47:50.208Z,6.13
2018-09-27T03:48:50.355Z,6.18
2018-09-27T03:49:50.504Z,6.16
2018-09-27T03:50:50.658Z,6.19
2018-09-27T03:51:50.799Z,6.06
2018-09-27T03:52:50.944Z,5.92
2018-09-27T03:53:51.091Z,5.98
2018-09-27T03:54:51.236Z,5.96
2018-09-27T03:55:51.381Z,5.95
2018-09-27T03:56:51.530Z,6.06
2018-09-27T03:57:51.678Z,5.88
2018-09-27T03:58:51.832Z,5.91
2018-09-27T03:59:51.977Z,5.86
2018-09-27T04:00:52.122Z,5.86
2018-09-27T04:01:52.269Z,5.86
2018-09-27T04:02:52.416Z,5.85
2018-09-27T04:03:52.570Z,5.85
2018-09-27T04:04:52.709Z,5.85
2018-09-27T04:05:52.859Z,5.93
2018-09-27T04:06:53.009Z,5.96
2018-09-27T04:07:53.155Z,5.95
2018-09-27T04:08:53.301Z,6.00
2018-09-27T04:09:53.448Z,6.00
2018-09-27T04:10:53.597Z,6.04
2018-09-27T04:11:53.741Z,5.98
2018-09-27T04:12:53.885Z,5.96
2018-09-27T04:13:54.031Z,5.85
2018-09-27T04:14:54.178Z,5.86
2018-09-27T04:15:54.378Z,6.00
2018-09-27T04:16:54.475Z,5.83
2018-09-27T04:17:54.620Z,5.83
2018-09-27T04:18:54.770Z,5.85
2018-09-27T04:19:55.049Z,5.89
2018-09-27T04:20:55.083Z,5.86
2018-09-27T04:21:55.233Z,5.75
2018-09-27T04:22:55.370Z,5.77
2018-09-27T04:23:55.566Z,5.77
2018-09-27T04:24:55.662Z,5.75
2018-09-27T04:25:55.810Z,5.83
2018-09-27T04:26:55.957Z,5.82
2018-09-27T04:27:56.204Z,5.78
2018-09-27T04:28:56.250Z,5.77
2018-09-27T04:29:56.397Z,5.68
2018-09-27T04:30:56.542Z,5.73
2018-09-27T04:31:56.687Z,5.67
2018-09-27T04:32:56.833Z,5.71
2018-09-27T04:33:57.003Z,5.67
2018-09-27T04:34:57.128Z,5.60
2018-09-27T04:35:57.275Z,5.73
2018-09-27T04:36:57.423Z,5.57
2018-09-27T04:37:57.569Z,5.59
2018-09-27T04:38:57.716Z,5.74
2018-09-27T04:39:57.865Z,5.70
2018-09-27T04:40:58.065Z,5.60
2018-09-27T04:41:58.155Z,5.60
2018-09-27T04:42:58.302Z,5.59
2018-09-27T04:43:58.448Z,5.66
2018-09-27T04:44:58.595Z,5.68
2018-09-27T04:45:58.789Z,5.75
2018-09-27T04:46:58.892Z,5.71
2018-09-27T04:47:59.034Z,5.66
2018-09-27T04:48:59.182Z,5.64
2018-09-27T04:49:59.339Z,5.59
2018-09-27T04:50:59.475Z,5.64
2018-09-27T04:51:59.621Z,5.55
2018-09-27T04:52:59.762Z,5.60
2018-09-27T04:53:59.910Z,5.55
2018-09-27T04:55:00.057Z,5.50
2018-09-27T04:56:00.204Z,5.56
2018-09-27T04:57:00.348Z,5.60
2018-09-27T04:58:00.495Z,5.55
2018-09-27T04:59:00.641Z,5.55
2018-09-27T05:00:00.843Z,5.63
2018-09-27T05:01:00.954Z,5.63
2018-09-27T05:02:01.083Z,5.66
2018-09-27T05:03:01.225Z,5.68
2018-09-27T05:04:01.370Z,5.60
2018-09-27T05:05:01.520Z,5.67
2018-09-27T05:06:01.668Z,5.68
2018-09-27T05:07:01.812Z,5.71
2018-09-27T05:08:01.955Z,5.66
2018-09-27T05:09:02.101Z,5.66
2018-09-27T05:10:02.248Z,5.55
2018-09-27T05:11:02.398Z,5.66
2018-09-27T05:12:02.544Z,5.75
2018-09-27T05:13:02.688Z,5.64
2018-09-27T05:14:02.836Z,5.57
2018-09-27T05:15:02.984Z,5.59
2018-09-27T05:16:03.182Z,5.64
2018-09-27T05:17:03.272Z,5.73
2018-09-27T05:18:03.418Z,5.70
2018-09-27T05:19:03.565Z,5.60
2018-09-27T05:20:03.713Z,5.68
2018-09-27T05:21:03.859Z,5.70
2018-09-27T05:22:04.003Z,5.66
2018-09-27T05:23:04.152Z,5.70
2018-09-27T05:24:04.303Z,5.57
2018-09-27T05:25:04.447Z,5.66
2018-09-27T05:26:04.591Z,5.71
2018-09-27T05:27:04.784Z,5.60
2018-09-27T05:28:04.886Z,5.70
2018-09-27T05:29:05.035Z,5.60
2018-09-27T05:30:05.181Z,5.59
2018-09-27T05:31:05.329Z,5.56
2018-09-27T05:32:05.475Z,5.66
2018-09-27T05:33:05.622Z,5.63
2018-09-27T05:34:05.767Z,5.60
2018-09-27T05:35:05.921Z,5.70
2018-09-27T05:36:06.065Z,5.60
2018-09-27T05:37:06.216Z,5.68
2018-09-27T05:38:06.357Z,5.68
2018-09-27T05:39:06.507Z,5.68
2018-09-27T05:40:06.673Z,5.73
2018-09-27T05:41:06.790Z,5.78
2018-09-27T05:42:06.939Z,5.82
2018-09-27T05:43:07.086Z,5.77
2018-09-27T05:44:07.232Z,5.93
2018-09-27T05:45:07.379Z,5.86
2018-09-27T05:46:07.527Z,5.96
2018-09-27T05:47:07.671Z,6.00
2018-09-27T05:48:07.820Z,6.07
2018-09-27T05:49:07.965Z,6.01
2018-09-27T05:50:08.116Z,6.00
2018-09-27T05:51:08.259Z,5.96
2018-09-27T05:52:08.404Z,5.95
2018-09-27T05:53:08.552Z,6.06
2018-09-27T05:54:08.697Z,6.01
2018-09-27T05:55:08.846Z,6.14
2018-09-27T05:56:08.990Z,6.18
2018-09-27T05:57:09.137Z,6.16
2018-09-27T05:58:09.286Z,6.28
2018-09-27T05:59:09.430Z,6.11
2018-09-27T06:00:09.579Z,6.14
2018-09-27T06:01:09.726Z,6.21
2018-09-27T06:02:09.885Z,6.25
2018-09-27T06:03:10.018Z,6.26
2018-09-27T06:04:10.166Z,6.28
2018-09-27T06:05:10.312Z,6.30
2018-09-27T06:06:10.460Z,6.22
2018-09-27T06:07:10.609Z,6.29
2018-09-27T06:08:10.757Z,6.33
2018-09-27T06:09:10.903Z,6.32
2018-09-27T06:10:11.059Z,6.43
2018-09-27T06:11:11.203Z,6.35
2018-09-27T06:12:11.349Z,6.41
2018-09-27T06:13:11.500Z,6.56
2018-09-27T06:14:11.647Z,6.58
2018-09-27T06:15:11.796Z,6.58
2018-09-27T06:16:11.942Z,6.65
2018-09-27T06:17:12.092Z,6.65
2018-09-27T06:18:12.237Z,6.73
2018-09-27T06:19:12.397Z,6.73
2018-09-27T06:20:12.532Z,6.69
2018-09-27T06:21:12.669Z,6.76
2018-09-27T06:22:12.833Z,6.83
2018-09-27T06:23:12.979Z,6.80
2018-09-27T06:24:13.123Z,6.84
2018-09-27T06:25:13.270Z,6.91
2018-09-27T06:26:13.494Z,6.84
2018-09-27T06:27:13.572Z,6.91
2018-09-27T06:28:13.713Z,6.89
2018-09-27T06:29:13.862Z,6.86
2018-09-27T06:30:14.011Z,7.07
2018-09-27T06:31:14.159Z,7.05
2018-09-27T06:32:14.303Z,7.08
2018-09-27T06:33:14.454Z,7.16
2018-09-27T06:34:14.601Z,7.17
2018-09-27T06:35:14.752Z,7.17
2018-09-27T06:36:14.899Z,7.17
2018-09-27T06:37:15.047Z,7.17
2018-09-27T06:38:15.197Z,7.15
2018-09-27T06:39:15.343Z,7.23
2018-09-27T06:40:15.493Z,7.22
2018-09-27T06:41:15.645Z,7.24
2018-09-27T06:42:15.788Z,7.38
2018-09-27T06:43:15.938Z,7.40
2018-09-27T06:44:16.092Z,7.35
2018-09-27T06:45:16.235Z,7.41
2018-09-27T06:46:16.382Z,7.35
2018-09-27T06:47:16.530Z,7.35
2018-09-27T06:48:16.702Z,7.55
2018-09-27T06:49:16.827Z,7.52
2018-09-27T06:50:16.973Z,7.52
2018-09-27T06:51:17.122Z,7.56
2018-09-27T06:52:17.272Z,7.56
2018-09-27T06:53:17.421Z,7.56
2018-09-27T06:54:17.568Z,7.72
2018-09-27T06:55:17.966Z,7.82
2018-09-27T06:56:17.957Z,7.90
2018-09-27T06:57:18.015Z,7.93
2018-09-27T06:58:18.162Z,8.00
2018-09-27T06:59:18.311Z,8.07
2018-09-27T07:00:18.456Z,8.07
2018-09-27T07:01:18.605Z,8.08
2018-09-27T07:02:18.750Z,8.18
2018-09-27T07:03:18.901Z,8.26
2018-09-27T07:04:19.046Z,8.25
2018-09-27T07:05:19.195Z,8.22
2018-09-27T07:06:19.343Z,8.25
2018-09-27T07:07:19.549Z,8.29
2018-09-27T07:08:19.642Z,8.33
2018-09-27T07:09:19.794Z,8.40
2018-09-27T07:10:19.945Z,8.45
2018-09-27T07:11:20.090Z,8.51
2018-09-27T07:12:20.415Z,8.47
2018-09-27T07:13:20.388Z,8.51
2018-09-27T07:14:20.538Z,8.75
2018-09-27T07:15:20.688Z,8.86
2018-09-27T07:16:20.837Z,8.86
2018-09-27T07:17:20.981Z,8.90
2018-09-27T07:18:21.130Z,8.97
2018-09-27T07:19:21.283Z,8.99
2018-09-27T07:20:21.461Z,9.13
2018-09-27T07:21:21.578Z,9.13
2018-09-27T07:22:21.725Z,9.04
2018-09-27T07:23:21.873Z,9.09
2018-09-27T07:24:22.021Z,9.09
2018-09-27T07:25:22.170Z,9.09
2018-09-27T07:26:22.334Z,9.27
2018-09-27T07:27:22.472Z,9.25
2018-09-27T07:28:22.624Z,9.38
2018-09-27T07:29:22.776Z,9.40
2018-09-27T07:30:22.922Z,9.35
2018-09-27T07:31:23.072Z,9.42
2018-09-27T07:32:23.237Z,9.56
2018-09-27T07:33:23.378Z,9.57
2018-09-27T07:34:23.524Z,9.58
2018-09-27T07:35:23.676Z,9.63
2018-09-27T07:36:23.877Z,9.81
2018-09-27T07:37:23.975Z,9.86
2018-09-27T07:38:24.128Z,9.73
2018-09-27T07:39:24.272Z,9.71
2018-09-27T07:40:24.428Z,9.68
2018-09-27T07:41:24.565Z,9.88
2018-09-27T07:42:24.715Z,9.88
2018-09-27T07:43:24.863Z,9.94
2018-09-27T07:44:25.032Z,9.96
2018-09-27T07:45:25.163Z,9.91
2018-09-27T07:46:25.312Z,9.94
2018-09-27T07:47:25.462Z,10.06
2018-09-27T07:48:25.622Z,10.12
2018-09-27T07:49:25.763Z,10.24
2018-09-27T07:50:25.931Z,10.28
2018-09-27T07:51:26.061Z,10.33
2018-09-27T07:52:26.213Z,10.28
2018-09-27T07:53:26.362Z,10.37
2018-09-27T07:54:26.589Z,10.43
2018-09-27T07:55:26.665Z,10.47
2018-09-27T07:56:26.831Z,10.56
2018-09-27T07:57:26.964Z,10.52
2018-09-27T07:58:27.112Z,10.59
2018-09-27T07:59:27.261Z,10.62
2018-09-27T08:00:27.410Z,10.60
2018-09-27T08:01:27.557Z,10.65
2018-09-27T08:02:27.717Z,10.63
2018-09-27T08:03:27.860Z,10.62
2018-09-27T08:04:28.009Z,10.74
2018-09-27T08:05:28.157Z,10.73
2018-09-27T08:06:28.305Z,10.91
2018-09-27T08:07:28.459Z,11.02
2018-09-27T08:08:28.661Z,11.07
2018-09-27T08:09:28.757Z,11.14
2018-09-27T08:10:28.907Z,11.25
2018-09-27T08:11:29.101Z,11.29
2018-09-27T08:12:29.212Z,11.39
2018-09-27T08:13:29.359Z,11.46
2018-09-27T08:14:29.523Z,11.44
2018-09-27T08:15:29.660Z,11.43
2018-09-27T08:16:29.810Z,11.50
2018-09-27T08:17:29.968Z,11.64
2018-09-27T08:18:30.110Z,11.71
2018-09-27T08:19:30.258Z,11.75
2018-09-27T08:20:30.451Z,11.87
2018-09-27T08:21:30.564Z,12.05
2018-09-27T08:22:30.711Z,12.09
2018-09-27T08:23:30.862Z,12.12
2018-09-27T08:24:31.012Z,12.19
2018-09-27T08:25:31.164Z,12.24
2018-09-27T08:26:31.358Z,12.42
2018-09-27T08:27:31.464Z,12.44
2018-09-27T08:28:31.616Z,12.39
2018-09-27T08:29:31.768Z,12.37
2018-09-27T08:30:31.972Z,12.51
2018-09-27T08:31:32.071Z,12.52
2018-09-27T08:32:32.273Z,12.64
2018-09-27T08:33:32.379Z,12.78
2018-09-27T08:34:32.529Z,12.87
2018-09-27T08:35:32.680Z,12.95
2018-09-27T08:36:32.827Z,12.88
2018-09-27T08:37:32.981Z,12.95
2018-09-27T08:38:33.135Z,13.14
2018-09-27T08:39:33.280Z,13.15
2018-09-27T08:40:33.429Z,13.37
2018-09-27T08:41:33.580Z,13.32
2018-09-27T08:42:33.735Z,13.38
2018-09-27T08:43:33.884Z,13.47
2018-09-27T08:44:34.070Z,13.56
2018-09-27T08:45:34.470Z,13.54
2018-09-27T08:46:34.343Z,13.69
2018-09-27T08:47:34.493Z,13.73
2018-09-27T08:48:34.640Z,13.77
2018-09-27T08:49:34.791Z,13.87
2018-09-27T08:50:34.945Z,13.88
2018-09-27T08:51:35.145Z,13.92
2018-09-27T08:52:35.245Z,13.88
2018-09-27T08:53:35.396Z,14.01
2018-09-27T08:54:35.547Z,14.10
2018-09-27T08:55:35.766Z,14.20
2018-09-27T08:56:35.855Z,14.25
2018-09-27T08:57:36.068Z,14.29
2018-09-27T08:58:36.161Z,14.32
2018-09-27T08:59:36.310Z,14.25
2018-09-27T09:00:36.460Z,14.39
2018-09-27T09:01:36.641Z,14.53
2018-09-27T09:02:36.765Z,14.50
2018-09-27T09:03:36.998Z,14.52
2018-09-27T09:04:37.065Z,14.68
2018-09-27T09:05:37.219Z,14.75
2018-09-27T09:06:37.368Z,14.71
2018-09-27T09:07:37.610Z,14.68
2018-09-27T09:08:37.672Z,14.83
2018-09-27T09:09:37.875Z,14.86
2018-09-27T09:10:37.977Z,14.98
2018-09-27T09:11:38.130Z,14.80
2018-09-27T09:12:38.282Z,14.91
2018-09-27T09:13:38.508Z,14.90
2018-09-27T09:14:38.590Z,14.90
2018-09-27T09:15:38.764Z,14.99
2018-09-27T09:16:38.887Z,15.09
2018-09-27T09:17:39.039Z,15.20
2018-09-27T09:18:39.190Z,15.38
2018-09-27T09:19:39.360Z,15.43
2018-09-27T09:20:39.494Z,15.48
2018-09-27T09:21:39.724Z,15.48
2018-09-27T09:22:39.800Z,15.52
2018-09-27T09:23:39.951Z,15.43
2018-09-27T09:24:40.188Z,15.51
2018-09-27T09:25:40.285Z,15.60
2018-09-27T09:26:40.409Z,15.78
2018-09-27T09:27:40.608Z,15.81
2018-09-27T09:28:40.769Z,15.81
2018-09-27T09:29:41.039Z,15.79
2018-09-27T09:30:41.018Z,15.86
2018-09-27T09:31:41.179Z,15.93
2018-09-27T09:32:41.325Z,15.99
2018-09-27T09:33:41.557Z,16.01
2018-09-27T09:34:41.633Z,16.06
2018-09-27T09:35:41.842Z,16.04
2018-09-27T09:36:41.937Z,16.09
2018-09-27T09:37:42.088Z,16.14
2018-09-27T09:38:42.240Z,16.16
2018-09-27T09:39:42.393Z,16.18
2018-09-27T09:40:42.545Z,16.26
2018-09-27T09:41:42.697Z,16.42
2018-09-27T09:42:42.850Z,16.58
2018-09-27T09:43:43.005Z,16.58
2018-09-27T09:44:43.156Z,16.59
2018-09-27T09:45:43.312Z,16.70
2018-09-27T09:46:43.463Z,16.71
2018-09-27T09:47:43.617Z,16.78
2018-09-27T09:48:43.771Z,16.98
2018-09-27T09:49:43.925Z,17.11
2018-09-27T09:50:44.083Z,17.20
2018-09-27T09:51:44.234Z,17.14
2018-09-27T09:52:44.388Z,17.29
2018-09-27T09:53:44.542Z,17.46
2018-09-27T09:54:44.701Z,17.62
2018-09-27T09:55:44.849Z,17.59
2018-09-27T09:56:45.006Z,17.76
2018-09-27T09:57:45.158Z,17.82
2018-09-27T09:58:45.315Z,17.84
2018-09-27T09:59:45.465Z,17.92
2018-09-27T10:00:45.620Z,17.95
2018-09-27T10:01:45.773Z,18.10
2018-09-27T10:02:45.928Z,18.03
2018-09-27T10:03:46.080Z,18.17
2018-09-27T10:04:46.232Z,18.18
2018-09-27T10:05:46.385Z,18.29
2018-09-27T10:06:46.541Z,18.40
2018-09-27T10:07:46.695Z,18.52
2018-09-27T10:08:46.901Z,18.58
2018-09-27T10:09:47.001Z,18.65
2018-09-27T10:10:47.157Z,18.70
2018-09-27T10:11:47.310Z,18.61
2018-09-27T10:12:47.464Z,18.52
2018-09-27T10:13:47.624Z,18.67
2018-09-27T10:14:47.780Z,18.65
2018-09-27T10:15:47.932Z,18.86
2018-09-27T10:16:48.107Z,18.86
2018-09-27T10:17:48.260Z,18.98
2018-09-27T10:18:48.415Z,19.02
2018-09-27T10:19:48.576Z,19.06
2018-09-27T10:20:48.746Z,19.01
2018-09-27T10:21:49.096Z,19.08
2018-09-27T10:22:49.056Z,19.15
2018-09-27T10:23:49.209Z,19.13
2018-09-27T10:24:49.362Z,19.11
2018-09-27T10:25:49.515Z,19.29
2018-09-27T10:26:49.672Z,19.35
2018-09-27T10:27:49.825Z,19.40
2018-09-27T10:28:49.981Z,19.53
2018-09-27T10:29:50.134Z,19.66
2018-09-27T10:30:50.289Z,19.65
2018-09-27T10:31:50.441Z,19.76
2018-09-27T10:32:50.601Z,19.76
2018-09-27T10:33:50.752Z,19.66
2018-09-27T10:34:50.907Z,19.68
2018-09-27T10:35:51.064Z,19.70
2018-09-27T10:36:51.218Z,19.70
2018-09-27T10:37:51.372Z,19.80
2018-09-27T10:38:51.529Z,19.90
2018-09-27T10:39:51.682Z,19.90
2018-09-27T10:40:51.835Z,19.98
2018-09-27T10:41:51.992Z,20.13
2018-09-27T10:42:52.146Z,20.00
2018-09-27T10:43:52.301Z,19.88
2018-09-27T10:44:52.474Z,20.02
2018-09-27T10:45:52.610Z,20.08
2018-09-27T10:46:52.765Z,20.15
2018-09-27T10:47:52.918Z,20.23
2018-09-27T10:48:53.074Z,20.24
2018-09-27T10:49:53.228Z,20.33
2018-09-27T10:50:53.384Z,20.39
2018-09-27T10:51:53.548Z,20.46
2018-09-27T10:52:53.701Z,20.59
2018-09-27T10:53:53.856Z,20.62
2018-09-27T10:54:54.012Z,20.84
2018-09-27T10:55:54.169Z,20.77
2018-09-27T10:56:54.324Z,20.90
2018-09-27T10:57:54.479Z,20.96
2018-09-27T10:58:54.634Z,20.98
2018-09-27T10:59:54.793Z,21.06
2018-09-27T11:00:54.945Z,20.98
2018-09-27T11:01:55.102Z,20.99
2018-09-27T11:02:55.259Z,21.09
2018-09-27T11:03:55.454Z,21.14
2018-09-27T11:04:55.567Z,21.17
2018-09-27T11:05:55.723Z,21.21
2018-09-27T11:06:55.880Z,21.30
2018-09-27T11:07:56.031Z,21.30
2018-09-27T11:08:56.188Z,21.34
2018-09-27T11:09:56.341Z,21.11
2018-09-27T11:10:56.542Z,21.26
2018-09-27T11:11:56.653Z,21.26
2018-09-27T11:12:56.810Z,21.32
2018-09-27T11:13:56.965Z,21.41
2018-09-27T11:14:57.119Z,21.54
2018-09-27T11:15:57.279Z,21.51
2018-09-27T11:16:57.435Z,21.56
2018-09-27T11:17:57.591Z,21.71
2018-09-27T11:18:57.744Z,21.81
2018-09-27T11:19:57.902Z,21.90
2018-09-27T11:20:58.056Z,21.95
2018-09-27T11:21:58.285Z,21.92
2018-09-27T11:22:58.373Z,21.92
2018-09-27T11:23:58.530Z,21.91
2018-09-27T11:24:58.683Z,22.02
2018-09-27T11:25:58.839Z,22.13
2018-09-27T11:26:59.000Z,22.19
2018-09-27T11:27:59.155Z,22.23
2018-09-27T11:28:59.349Z,21.97
2018-09-27T11:29:59.469Z,21.98
2018-09-27T11:30:59.625Z,22.07
2018-09-27T11:31:59.782Z,22.12
2018-09-27T11:32:59.973Z,22.13
2018-09-27T11:34:00.094Z,22.07
2018-09-27T11:35:00.249Z,22.22
2018-09-27T11:36:00.408Z,22.27
2018-09-27T11:37:00.562Z,22.38
2018-09-27T11:38:00.724Z,22.47
2018-09-27T11:39:00.879Z,22.64
2018-09-27T11:40:01.032Z,22.75
2018-09-27T11:41:01.193Z,22.59
2018-09-27T11:42:01.346Z,22.65
2018-09-27T11:43:01.516Z,22.71
2018-09-27T11:44:01.732Z,22.59
2018-09-27T11:45:01.825Z,22.54
2018-09-27T11:46:01.981Z,22.71
2018-09-27T11:47:02.137Z,22.82
2018-09-27T11:48:02.301Z,22.92
2018-09-27T11:49:02.489Z,22.86
2018-09-27T11:50:02.681Z,23.04
2018-09-27T11:51:02.777Z,22.82
2018-09-27T11:52:02.933Z,22.94
2018-09-27T11:53:03.088Z,23.01
2018-09-27T11:54:03.245Z,23.02
2018-09-27T11:55:03.465Z,23.19
2018-09-27T11:56:03.637Z,23.43
2018-09-27T11:57:03.715Z,23.45
2018-09-27T11:58:03.875Z,23.53
2018-09-27T11:59:04.089Z,23.60
2018-09-27T12:00:04.191Z,23.40
2018-09-27T12:01:04.356Z,23.29
2018-09-27T12:02:04.502Z,23.47
2018-09-27T12:03:04.659Z,23.47
2018-09-27T12:04:04.810Z,23.50
2018-09-27T12:05:04.964Z,23.38
2018-09-27T12:06:05.121Z,23.34
2018-09-27T12:07:05.281Z,23.57
2018-09-27T12:08:05.443Z,23.64
2018-09-27T12:09:05.596Z,23.60
2018-09-27T12:10:05.749Z,23.68
2018-09-27T12:11:05.906Z,23.77
2018-09-27T12:12:06.087Z,23.70
2018-09-27T12:13:06.218Z,23.52
2018-09-27T12:14:06.378Z,23.29
2018-09-27T12:15:06.528Z,23.45
2018-09-27T12:16:06.681Z,23.70
2018-09-27T12:17:06.839Z,23.68
2018-09-27T12:18:06.993Z,23.83
2018-09-27T12:19:07.152Z,23.83
2018-09-27T12:20:07.381Z,23.83
2018-09-27T12:21:07.465Z,23.71
2018-09-27T12:22:07.617Z,23.80
2018-09-27T12:23:07.845Z,23.70
2018-09-27T12:24:07.933Z,23.71
2018-09-27T12:25:08.092Z,23.89
2018-09-27T12:26:08.246Z,23.77
2018-09-27T12:27:08.404Z,23.97
2018-09-27T12:28:08.566Z,24.01
2018-09-27T12:29:08.725Z,24.13
2018-09-27T12:30:08.884Z,24.19
2018-09-27T12:31:09.136Z,24.10
2018-09-27T12:32:09.199Z,24.07
2018-09-27T12:33:09.356Z,24.24
2018-09-27T12:34:09.575Z,24.23
2018-09-27T12:35:09.672Z,24.27
2018-09-27T12:36:09.831Z,24.32
2018-09-27T12:37:09.990Z,24.24
2018-09-27T12:38:10.144Z,24.08
2018-09-27T12:39:10.306Z,24.17
2018-09-27T12:40:10.461Z,24.10
2018-09-27T12:41:10.621Z,24.22
2018-09-27T12:42:10.975Z,24.16
2018-09-27T12:43:10.937Z,24.34
2018-09-27T12:44:11.113Z,24.39
2018-09-27T12:45:11.393Z,24.35
2018-09-27T12:46:11.502Z,24.39
2018-09-27T12:47:11.567Z,24.57
2018-09-27T12:48:11.836Z,24.49
2018-09-27T12:49:11.883Z,24.63
2018-09-27T12:50:12.041Z,24.64
2018-09-27T12:51:12.316Z,24.49
2018-09-27T12:52:12.573Z,24.64
2018-09-27T12:53:12.572Z,24.45
2018-09-27T12:54:12.678Z,24.41
2018-09-27T12:55:12.842Z,24.35
2018-09-27T12:56:12.998Z,24.45
2018-09-27T12:57:13.285Z,24.44
2018-09-27T12:58:13.319Z,24.45
2018-09-27T12:59:13.472Z,24.53
2018-09-27T13:00:13.628Z,24.67
2018-09-27T13:01:13.785Z,24.79
2018-09-27T13:02:14.035Z,24.75
2018-09-27T13:03:14.106Z,24.83
2018-09-27T13:04:14.266Z,24.85
2018-09-27T13:05:14.423Z,25.01
2018-09-27T13:06:14.581Z,25.05
2018-09-27T13:07:14.739Z,25.15
2018-09-27T13:08:14.899Z,25.19
2018-09-27T13:09:15.189Z,25.22